createdAt,value
2023-02-07T00:02:07.765Z,103687.03
2023-02-07T00:04:34.081Z,103689.34
2023-02-07T00:07:00.395Z,103686.00
2023-02-07T00:09:26.710Z,103677.63
2023-02-07T00:11:53.010Z,103680.28
2023-02-07T00:14:19.327Z,103678.50
2023-02-07T00:16:45.669Z,103688.66
2023-02-07T00:19:12.045Z,103689.56
2023-02-07T00:21:38.458Z,103682.25
2023-02-07T00:24:05.384Z,103681.00
2023-02-07T00:26:31.753Z,103681.88
2023-02-07T00:28:58.081Z,103679.03
2023-02-07T00:31:30.635Z,103676.72
2023-02-07T00:33:59.744Z,103681.53
2023-02-07T00:36:28.217Z,103681.38
2023-02-07T00:38:59.782Z,103681.38
2023-02-07T00:41:27.105Z,103670.66
2023-02-07T00:43:53.672Z,103672.47
2023-02-07T00:46:21.192Z,103673.19
2023-02-07T00:48:47.588Z,103683.16
2023-02-07T00:51:14.302Z,103677.28
2023-02-07T00:53:41.059Z,103682.09
2023-02-07T00:56:08.474Z,103675.88
2023-02-07T00:58:35.139Z,103680.88
2023-02-07T01:01:01.465Z,103678.72
2023-02-07T01:03:27.797Z,103687.25
2023-02-07T01:05:54.096Z,103683.16
2023-02-07T01:08:20.407Z,103688.50
2023-02-07T01:10:46.885Z,103695.47
2023-02-07T01:13:14.963Z,103687.81
2023-02-07T01:15:44.208Z,103685.84
2023-02-07T01:18:11.401Z,103680.50
2023-02-07T01:20:37.844Z,103680.13
2023-02-07T01:23:05.215Z,103682.25
2023-02-07T01:25:31.874Z,103681.22
2023-02-07T01:27:58.186Z,103671.22
2023-02-07T01:30:24.536Z,103665.69
2023-02-07T01:32:50.912Z,103663.22
2023-02-07T01:35:17.268Z,103658.94
2023-02-07T01:37:43.587Z,103656.78
2023-02-07T01:40:11.702Z,103657.88
2023-02-07T01:42:38.281Z,103660.00
2023-02-07T01:45:22.835Z,103658.75
2023-02-07T01:47:51.361Z,103656.44
2023-02-07T01:50:17.951Z,103666.25
2023-02-07T01:52:44.942Z,103667.28
2023-02-07T01:55:17.773Z,103666.94
2023-02-07T01:57:45.038Z,103663.19
2023-02-07T02:00:14.804Z,103667.09
2023-02-07T02:02:41.886Z,103660.72
2023-02-07T02:05:10.424Z,103661.41
2023-02-07T02:07:39.204Z,103658.41
2023-02-07T02:10:40.841Z,103657.50
2023-02-07T02:13:14.761Z,103656.97
2023-02-07T02:16:06.100Z,103645.38
2023-02-07T02:18:50.052Z,103647.88
2023-02-07T02:21:31.435Z,103651.78
2023-02-07T02:24:19.101Z,103651.78
2023-02-07T02:27:05.735Z,103652.13
2023-02-07T02:29:31.980Z,103646.81
2023-02-07T02:32:29.232Z,103646.25
2023-02-07T02:35:20.277Z,103638.59
2023-02-07T02:38:02.128Z,103641.44
2023-02-07T02:40:47.196Z,103645.34
2023-02-07T02:43:21.520Z,103641.78
2023-02-07T02:45:55.388Z,103632.00
2023-02-07T02:48:23.564Z,103628.44
2023-02-07T02:50:50.055Z,103628.63
2023-02-07T02:53:16.620Z,103628.44
2023-02-07T02:56:08.598Z,103625.38
2023-02-07T02:58:58.732Z,103620.94
2023-02-07T03:01:24.997Z,103619.31
2023-02-07T03:04:28.928Z,103623.41
2023-02-07T03:07:18.205Z,103618.97
2023-02-07T03:09:59.695Z,103615.75
2023-02-07T03:12:34.724Z,103617.53
2023-02-07T03:15:26.391Z,103619.31
2023-02-07T03:17:55.674Z,103614.69
2023-02-07T03:20:37.051Z,103610.25
2023-02-07T03:23:05.854Z,103608.44
2023-02-07T03:25:32.749Z,103597.78
2023-02-07T03:27:59.123Z,103602.75
2023-02-07T03:30:30.189Z,103606.34
2023-02-07T03:32:59.195Z,103606.84
2023-02-07T03:35:30.487Z,103612.53
2023-02-07T03:37:59.265Z,103607.00
2023-02-07T03:40:29.840Z,103604.50
2023-02-07T03:43:33.475Z,103601.47
2023-02-07T03:45:59.798Z,103614.63
2023-02-07T03:48:26.175Z,103616.03
2023-02-07T03:50:52.484Z,103617.09
2023-02-07T03:53:20.376Z,103621.16
2023-02-07T03:55:46.688Z,103610.91
2023-02-07T03:58:13.188Z,103611.59
2023-02-07T04:00:39.625Z,103616.75
2023-02-07T04:03:06.374Z,103613.53
2023-02-07T04:05:32.822Z,103613.88
2023-02-07T04:07:59.126Z,103624.22
2023-02-07T04:10:25.435Z,103621.72
2023-02-07T04:12:51.868Z,103621.34
2023-02-07T04:15:18.528Z,103618.88
2023-02-07T04:17:44.837Z,103627.59
2023-02-07T04:20:12.182Z,103633.84
2023-02-07T04:22:38.688Z,103630.41
2023-02-07T04:25:05.378Z,103630.78
2023-02-07T04:27:31.766Z,103624.19
2023-02-07T04:29:58.077Z,103626.44
2023-02-07T04:32:24.431Z,103619.19
2023-02-07T04:34:50.753Z,103621.66
2023-02-07T04:37:17.425Z,103612.59
2023-02-07T04:39:43.773Z,103615.97
2023-02-07T04:42:10.081Z,103617.19
2023-02-07T04:44:36.393Z,103618.59
2023-02-07T04:47:02.717Z,103614.50
2023-02-07T04:49:29.023Z,103613.09
2023-02-07T04:51:55.312Z,103610.59
2023-02-07T04:54:21.674Z,103619.13
2023-02-07T04:56:47.986Z,103613.66
2023-02-07T04:59:14.320Z,103628.09
2023-02-07T05:01:40.610Z,103616.75
2023-02-07T05:04:06.909Z,103617.06
2023-02-07T05:06:33.205Z,103630.91
2023-02-07T05:08:59.507Z,103627.66
2023-02-07T05:11:25.846Z,103630.50
2023-02-07T05:13:52.144Z,103636.19
2023-02-07T05:16:18.486Z,103630.44
2023-02-07T05:18:44.774Z,103632.78
2023-02-07T05:21:11.098Z,103629.56
2023-02-07T05:23:37.369Z,103629.72
2023-02-07T05:26:03.760Z,103631.53
2023-02-07T05:28:30.064Z,103629.03
2023-02-07T05:30:59.854Z,103626.50
2023-02-07T05:33:26.249Z,103630.78
2023-02-07T05:35:52.570Z,103624.03
2023-02-07T05:38:20.092Z,103627.22
2023-02-07T05:40:47.375Z,103624.91
2023-02-07T05:43:14.126Z,103641.13
2023-02-07T05:45:40.767Z,103645.22
2023-02-07T05:48:10.457Z,103650.22
2023-02-07T05:53:23.432Z,103651.59
2023-02-07T05:55:51.706Z,103657.59
2023-02-07T05:58:18.039Z,103646.75
2023-02-07T06:00:44.322Z,103644.94
2023-02-07T06:03:10.668Z,103637.69
2023-02-07T06:05:37.434Z,103643.91
2023-02-07T06:08:04.118Z,103643.72
2023-02-07T06:10:30.430Z,103641.91
2023-02-07T06:12:56.740Z,103634.59
2023-02-07T06:15:23.219Z,103639.41
2023-02-07T06:17:49.632Z,103636.91
2023-02-07T06:20:16.198Z,103649.84
2023-02-07T06:22:42.502Z,103649.16
2023-02-07T06:25:09.221Z,103652.00
2023-02-07T06:27:35.512Z,103653.97
2023-02-07T06:30:01.842Z,103661.81
2023-02-07T06:32:28.151Z,103659.19
2023-02-07T06:34:54.462Z,103655.09
2023-02-07T06:37:20.767Z,103658.47
2023-02-07T06:39:47.060Z,103663.97
2023-02-07T06:42:13.365Z,103659.53
2023-02-07T06:44:39.653Z,103666.28
2023-02-07T06:47:05.950Z,103670.91
2023-02-07T06:49:32.304Z,103665.25
2023-02-07T06:51:58.865Z,103679.47
2023-02-07T06:54:25.220Z,103670.97
2023-02-07T06:56:51.528Z,103676.84
2023-02-07T06:59:17.960Z,103677.91
2023-02-07T07:01:44.381Z,103669.94
2023-02-07T07:04:10.727Z,103674.19
2023-02-07T07:06:37.109Z,103672.81
2023-02-07T07:09:04.384Z,103664.09
2023-02-07T07:11:30.786Z,103664.28
2023-02-07T07:13:57.069Z,103666.94
2023-02-07T07:16:23.503Z,103664.16
2023-02-07T07:18:50.183Z,103663.09
2023-02-07T07:21:16.568Z,103661.16
2023-02-07T07:23:42.894Z,103652.81
2023-02-07T07:26:09.194Z,103656.06
2023-02-07T07:28:35.555Z,103644.16
2023-02-07T07:31:04.170Z,103639.94
2023-02-07T07:33:30.531Z,103645.81
2023-02-07T07:35:58.002Z,103644.94
2023-02-07T07:38:24.359Z,103647.47
2023-02-07T07:40:50.677Z,103647.13
2023-02-07T07:43:17.073Z,103650.91
2023-02-07T07:45:43.389Z,103660.69
2023-02-07T07:48:09.778Z,103650.91
2023-02-07T07:50:36.131Z,103653.03
2023-02-07T07:53:02.436Z,103656.47
2023-02-07T07:55:28.756Z,103670.31
2023-02-07T07:57:55.031Z,103664.66
2023-02-07T08:00:21.394Z,103673.19
2023-02-07T08:02:47.702Z,103678.00
2023-02-07T08:05:14.094Z,103676.41
2023-02-07T08:07:40.589Z,103678.88
2023-02-07T08:10:06.969Z,103677.25
2023-02-07T08:12:33.426Z,103682.06
2023-02-07T08:14:59.765Z,103673.66
2023-02-07T08:17:26.097Z,103681.63
2023-02-07T08:19:52.411Z,103668.94
2023-02-07T08:22:18.771Z,103668.22
2023-02-07T08:24:45.055Z,103665.16
2023-02-07T08:27:11.519Z,103669.06
2023-02-07T08:29:37.851Z,103676.47
2023-02-07T08:32:04.351Z,103673.56
2023-02-07T08:34:31.147Z,103669.25
2023-02-07T08:36:57.444Z,103675.09
2023-02-07T08:39:23.744Z,103668.25
2023-02-07T08:41:50.043Z,103673.78
2023-02-07T08:44:16.356Z,103663.72
2023-02-07T08:46:42.638Z,103668.13
2023-02-07T08:49:10.122Z,103667.94
2023-02-07T08:51:36.457Z,103674.81
2023-02-07T08:54:02.811Z,103662.81
2023-02-07T08:56:29.137Z,103668.84
2023-02-07T08:58:55.441Z,103665.72
2023-02-07T09:01:21.818Z,103669.38
2023-02-07T09:03:48.128Z,103662.50
2023-02-07T09:06:14.408Z,103650.09
2023-02-07T09:08:40.730Z,103655.06
2023-02-07T09:11:10.095Z,103655.84
2023-02-07T09:13:36.628Z,103644.63
2023-02-07T09:16:02.960Z,103649.00
2023-02-07T09:18:29.534Z,103649.25
2023-02-07T09:20:55.851Z,103661.03
2023-02-07T09:23:22.192Z,103661.47
2023-02-07T09:25:52.666Z,103668.50
2023-02-07T09:28:20.358Z,103666.47
2023-02-07T09:30:47.177Z,103665.91
2023-02-07T09:33:15.277Z,103667.81
2023-02-07T09:35:44.140Z,103669.38
2023-02-07T09:38:16.456Z,103669.06
2023-02-07T09:40:44.084Z,103676.34
2023-02-07T09:43:19.211Z,103672.72
2023-02-07T09:45:49.418Z,103671.00
2023-02-07T09:48:50.257Z,103671.63
2023-02-07T09:51:20.040Z,103687.50
2023-02-07T09:53:53.346Z,103685.88
2023-02-07T09:56:23.163Z,103686.94
2023-02-07T09:59:37.925Z,103692.59
2023-02-07T10:02:11.582Z,103695.56
2023-02-07T10:04:43.959Z,103697.19
2023-02-07T10:07:11.532Z,103702.38
2023-02-07T10:09:41.550Z,103705.63
2023-02-07T10:12:26.688Z,103700.00
2023-02-07T10:15:35.642Z,103703.03
2023-02-07T10:18:13.945Z,103698.78
2023-02-07T10:20:58.771Z,103691.06
2023-02-07T10:23:46.599Z,103701.88
2023-02-07T10:26:24.858Z,103703.22
2023-02-07T10:29:06.239Z,103687.69
2023-02-07T10:31:38.359Z,103694.19
2023-02-07T10:34:13.806Z,103695.34
2023-02-07T10:36:45.728Z,103690.03
2023-02-07T10:39:22.068Z,103691.66
2023-02-07T10:41:49.245Z,103684.09
2023-02-07T10:44:18.880Z,103679.06
2023-02-07T10:46:47.714Z,103684.22
2023-02-07T10:49:24.837Z,103678.16
2023-02-07T10:51:52.054Z,103672.38
2023-02-07T10:54:20.488Z,103665.09
2023-02-07T10:57:01.691Z,103677.53
2023-02-07T10:59:43.366Z,103678.66
2023-02-07T11:02:43.388Z,103680.09
2023-02-07T11:05:15.468Z,103671.75
2023-02-07T11:07:56.214Z,103676.50
2023-02-07T11:10:43.722Z,103675.59
2023-02-07T11:13:24.752Z,103678.97
2023-02-07T11:16:01.602Z,103671.81
2023-02-07T11:18:31.526Z,103667.94
2023-02-07T11:20:57.947Z,103666.56
2023-02-07T11:23:25.376Z,103668.88
2023-02-07T11:25:55.266Z,103672.06
2023-02-07T11:28:21.664Z,103666.13
2023-02-07T11:30:55.440Z,103670.53
2023-02-07T11:33:26.705Z,103674.44
2023-02-07T11:36:22.292Z,103667.16
2023-02-07T11:38:53.945Z,103661.75
2023-02-07T11:41:25.907Z,103661.06
2023-02-07T11:43:53.948Z,103670.41
2023-02-07T11:46:20.341Z,103658.59
2023-02-07T11:48:49.610Z,103660.56
2023-02-07T11:51:18.612Z,103656.13
2023-02-07T11:53:51.094Z,103663.22
2023-02-07T11:56:24.799Z,103657.63
2023-02-07T11:58:53.051Z,103659.59
2023-02-07T12:01:25.964Z,103654.97
2023-02-07T12:03:56.381Z,103645.47
2023-02-07T12:06:26.434Z,103648.78
2023-02-07T12:08:53.181Z,103650.78
2023-02-07T12:11:25.688Z,103651.97
2023-02-07T12:14:33.269Z,103638.63
2023-02-07T12:17:01.718Z,103634.19
2023-02-07T12:19:35.393Z,103629.00
2023-02-07T12:22:11.566Z,103626.34
2023-02-07T12:24:45.692Z,103623.34
2023-02-07T12:27:16.110Z,103620.31
2023-02-07T12:29:51.751Z,103623.19
2023-02-07T12:32:49.292Z,103614.72
2023-02-07T12:35:39.261Z,103618.78
2023-02-07T12:38:24.319Z,103603.78
2023-02-07T12:40:55.735Z,103594.41
2023-02-07T12:43:32.318Z,103592.88
2023-02-07T12:46:01.722Z,103588.34
2023-02-07T12:48:28.011Z,103586.00
2023-02-07T12:51:08.803Z,103580.91
2023-02-07T12:53:56.414Z,103583.09
2023-02-07T12:56:44.082Z,103585.78
2023-02-07T12:59:41.955Z,103583.06
2023-02-07T13:02:40.394Z,103584.16
2023-02-07T13:05:23.981Z,103581.63
2023-02-07T13:08:02.363Z,103576.13
2023-02-07T13:10:34.632Z,103568.50
2023-02-07T13:13:25.911Z,103585.25
2023-02-07T13:16:04.358Z,103581.25
2023-02-07T13:18:50.533Z,103590.84
2023-02-07T13:21:28.574Z,103589.75
2023-02-07T13:24:01.099Z,103580.19
2023-02-07T13:26:28.689Z,103572.53
2023-02-07T13:28:58.815Z,103579.34
2023-02-07T13:31:41.771Z,103573.50
2023-02-07T13:34:15.736Z,103571.88
2023-02-07T13:36:44.808Z,103572.47
2023-02-07T13:39:29.830Z,103574.19
2023-02-07T13:42:31.584Z,103572.22
2023-02-07T13:45:04.107Z,103563.00
2023-02-07T13:47:54.497Z,103566.78
2023-02-07T13:50:58.516Z,103560.00
2023-02-07T13:53:33.566Z,103553.00
2023-02-07T13:56:02.858Z,103549.53
2023-02-07T13:58:35.278Z,103546.81
2023-02-07T14:01:15.411Z,103546.19
2023-02-07T14:03:58.209Z,103555.06
2023-02-07T14:06:30.302Z,103553.34
2023-02-07T14:09:20.337Z,103551.22
2023-02-07T14:11:50.040Z,103549.94
2023-02-07T14:14:23.281Z,103547.13
2023-02-07T14:16:51.035Z,103541.03
2023-02-07T14:19:40.074Z,103554.75
2023-02-07T14:22:15.900Z,103543.78
2023-02-07T14:24:58.638Z,103549.50
2023-02-07T14:27:50.752Z,103544.91
2023-02-07T14:30:46.596Z,103544.84
2023-02-07T14:33:19.186Z,103547.78
2023-02-07T14:36:13.792Z,103555.44
2023-02-07T14:39:01.748Z,103545.72
2023-02-07T14:41:33.503Z,103550.66
2023-02-07T14:44:10.392Z,103542.19
2023-02-07T14:46:41.598Z,103537.41
2023-02-07T14:49:43.804Z,103537.44
2023-02-07T14:52:23.557Z,103537.84
2023-02-07T14:54:54.771Z,103538.50
2023-02-07T14:57:50.767Z,103535.22
2023-02-07T15:00:29.638Z,103529.75
2023-02-07T15:03:01.249Z,103529.38
2023-02-07T15:05:31.030Z,103520.19
2023-02-07T15:08:09.066Z,103521.59
2023-02-07T15:11:01.822Z,103523.47
2023-02-07T15:13:37.169Z,103525.75
2023-02-07T15:16:14.216Z,103532.69
2023-02-07T15:18:45.903Z,103528.16
2023-02-07T15:21:30.996Z,103530.28
2023-02-07T15:24:06.814Z,103531.81
2023-02-07T15:26:35.186Z,103534.59
2023-02-07T15:29:06.947Z,103528.66
2023-02-07T15:31:41.003Z,103525.84
2023-02-07T15:34:16.029Z,103534.19
2023-02-07T15:36:45.442Z,103535.44
2023-02-07T15:39:16.531Z,103530.88
2023-02-07T15:41:46.019Z,103534.06
2023-02-07T15:44:27.165Z,103538.06
2023-02-07T15:47:02.289Z,103524.63
2023-02-07T15:49:30.261Z,103526.25
2023-02-07T15:52:21.013Z,103520.13
2023-02-07T15:54:51.302Z,103536.13
2023-02-07T15:57:28.142Z,103528.88
2023-02-07T15:59:56.578Z,103524.41
2023-02-07T16:02:28.759Z,103523.22
2023-02-07T16:04:55.355Z,103522.03
2023-02-07T16:07:22.933Z,103521.75
2023-02-07T16:09:49.377Z,103532.00
2023-02-07T16:12:41.593Z,103541.88
2023-02-07T16:15:24.338Z,103544.59
2023-02-07T16:17:50.874Z,103536.31
2023-02-07T16:20:17.435Z,103539.63
2023-02-07T16:22:45.579Z,103543.09
2023-02-07T16:25:35.028Z,103549.47
2023-02-07T16:28:02.892Z,103551.66
2023-02-07T16:30:33.424Z,103539.66
2023-02-07T16:33:04.722Z,103540.44
2023-02-07T16:35:31.115Z,103542.22
2023-02-07T16:37:57.535Z,103545.81
2023-02-07T16:40:24.371Z,103548.03
2023-02-07T16:42:53.490Z,103550.56
2023-02-07T16:45:25.678Z,103555.47
2023-02-07T16:47:52.867Z,103556.09
2023-02-07T16:50:24.643Z,103561.72
2023-02-07T16:52:52.184Z,103565.28
2023-02-07T16:55:20.569Z,103566.06
2023-02-07T16:57:48.399Z,103570.78
2023-02-07T17:00:18.004Z,103566.03
2023-02-07T17:02:44.349Z,103559.84
2023-02-07T17:05:10.727Z,103549.78
2023-02-07T17:07:37.179Z,103553.63
2023-02-07T17:10:15.947Z,103556.56
2023-02-07T17:12:42.313Z,103558.22
2023-02-07T17:15:09.278Z,103562.94
2023-02-07T17:17:35.694Z,103559.38
2023-02-07T17:20:02.159Z,103556.88
2023-02-07T17:22:28.502Z,103553.91
2023-02-07T17:24:54.841Z,103558.22
2023-02-07T17:27:21.273Z,103555.84
2023-02-07T17:29:47.606Z,103550.06
2023-02-07T17:32:19.502Z,103548.28
2023-02-07T17:34:56.225Z,103553.91
2023-02-07T17:37:22.545Z,103556.28
2023-02-07T17:39:48.862Z,103568.13
2023-02-07T17:42:15.196Z,103562.50
2023-02-07T17:44:41.524Z,103559.25
2023-02-07T17:47:09.164Z,103560.13
2023-02-07T17:49:35.515Z,103571.09
2023-02-07T17:52:01.876Z,103565.44
2023-02-07T17:54:28.246Z,103562.78
2023-02-07T17:56:55.702Z,103571.97
2023-02-07T17:59:23.211Z,103572.59
2023-02-07T18:01:50.114Z,103573.03
2023-02-07T18:04:16.497Z,103567.28
2023-02-07T18:06:42.815Z,103564.31
2023-02-07T18:09:17.825Z,103560.47
2023-02-07T18:11:44.240Z,103566.09
2023-02-07T18:14:10.633Z,103560.78
2023-02-07T18:16:36.993Z,103558.69
2023-02-07T18:19:03.545Z,103561.66
2023-02-07T18:21:29.942Z,103570.53
2023-02-07T18:23:56.743Z,103570.22
2023-02-07T18:26:23.358Z,103579.44
2023-02-07T18:28:50.083Z,103581.63
2023-02-07T18:31:19.778Z,103572.91
2023-02-07T18:33:47.281Z,103575.72
2023-02-07T18:36:14.553Z,103584.00
2023-02-07T18:38:44.017Z,103584.13
2023-02-07T18:41:12.571Z,103589.44
2023-02-07T18:43:40.235Z,103593.00
2023-02-07T18:46:11.815Z,103598.59
2023-02-07T18:48:38.918Z,103599.75
2023-02-07T18:51:09.597Z,103600.66
2023-02-07T18:53:36.357Z,103598.13
2023-02-07T18:56:07.600Z,103594.72
2023-02-07T18:58:34.446Z,103595.31
2023-02-07T19:01:11.962Z,103603.72
2023-02-07T19:03:38.362Z,103597.94
2023-02-07T19:06:06.756Z,103606.03
2023-02-07T19:08:38.041Z,103612.09
2023-02-07T19:11:06.768Z,103607.16
2023-02-07T19:13:34.743Z,103609.22
2023-02-07T19:16:09.095Z,103614.97
2023-02-07T19:18:35.416Z,103623.66
2023-02-07T19:21:06.646Z,103621.31
2023-02-07T19:23:33.490Z,103625.00
2023-02-07T19:26:00.516Z,103626.16
2023-02-07T19:28:26.861Z,103623.53
2023-02-07T19:30:53.243Z,103625.56
2023-02-07T19:33:19.570Z,103627.47
2023-02-07T19:35:45.941Z,103627.59
2023-02-07T19:38:12.289Z,103636.16
2023-02-07T19:40:38.928Z,103632.47
2023-02-07T19:43:05.408Z,103627.53
2023-02-07T19:45:31.748Z,103636.09
2023-02-07T19:47:58.050Z,103644.91
2023-02-07T19:50:24.400Z,103645.22
2023-02-07T19:52:50.693Z,103646.44
2023-02-07T19:55:17.116Z,103640.94
2023-02-07T19:57:46.159Z,103640.63
2023-02-07T20:00:15.506Z,103645.75
2023-02-07T20:02:41.836Z,103646.31
2023-02-07T20:05:08.122Z,103642.63
2023-02-07T20:07:34.476Z,103646.88
2023-02-07T20:10:00.900Z,103647.03
2023-02-07T20:12:27.324Z,103644.06
2023-02-07T20:14:53.688Z,103650.72
2023-02-07T20:17:20.059Z,103642.69
2023-02-07T20:19:46.386Z,103649.75
2023-02-07T20:22:12.711Z,103647.94
2023-02-07T20:24:39.028Z,103649.06
2023-02-07T20:27:05.357Z,103660.06
2023-02-07T20:29:31.677Z,103663.13
2023-02-07T20:31:58.028Z,103658.94
2023-02-07T20:34:24.355Z,103663.22
2023-02-07T20:36:50.705Z,103656.44
2023-02-07T20:39:20.454Z,103660.41
2023-02-07T20:41:47.944Z,103649.31
2023-02-07T20:44:16.185Z,103662.19
2023-02-07T20:46:43.577Z,103667.56
2023-02-07T20:49:16.216Z,103657.56
2023-02-07T20:51:46.909Z,103664.75
2023-02-07T20:54:13.221Z,103656.44
2023-02-07T20:56:39.525Z,103667.91
2023-02-07T20:59:06.348Z,103654.66
2023-02-07T21:01:33.838Z,103653.75
2023-02-07T21:04:06.893Z,103649.25
2023-02-07T21:06:34.633Z,103648.19
2023-02-07T21:09:03.108Z,103658.13
2023-02-07T21:11:34.054Z,103653.13
2023-02-07T21:14:01.332Z,103657.25
2023-02-07T21:16:27.772Z,103657.97
2023-02-07T21:18:54.232Z,103658.53
2023-02-07T21:21:20.564Z,103659.66
2023-02-07T21:23:46.888Z,103651.47
2023-02-07T21:26:15.872Z,103657.16
2023-02-07T21:28:42.633Z,103651.19
2023-02-07T21:31:18.691Z,103661.09
2023-02-07T21:33:45.570Z,103657.31
2023-02-07T21:36:15.040Z,103654.97
2023-02-07T21:38:44.950Z,103655.06
2023-02-07T21:41:12.741Z,103654.38
2023-02-07T21:43:39.726Z,103656.72
2023-02-07T21:46:09.105Z,103656.66
2023-02-07T21:48:37.039Z,103654.53
2023-02-07T21:51:05.044Z,103654.63
2023-02-07T21:53:31.385Z,103660.97
2023-02-07T21:56:02.598Z,103657.75
2023-02-07T21:58:28.970Z,103653.63
2023-02-07T22:00:55.734Z,103648.78
2023-02-07T22:03:22.573Z,103652.50
2023-02-07T22:05:51.553Z,103651.59
2023-02-07T22:08:17.912Z,103641.75
2023-02-07T22:10:44.250Z,103650.34
2023-02-07T22:13:12.287Z,103660.91
2023-02-07T22:15:38.643Z,103656.13
2023-02-07T22:18:05.072Z,103658.84
2023-02-07T22:20:32.264Z,103660.09
2023-02-07T22:22:58.587Z,103651.25
2023-02-07T22:25:24.930Z,103654.47
2023-02-07T22:27:51.253Z,103654.09
2023-02-07T22:30:17.660Z,103650.34
2023-02-07T22:32:43.960Z,103653.31
2023-02-07T22:35:10.299Z,103645.88
2023-02-07T22:37:36.559Z,103648.19
2023-02-07T22:40:03.154Z,103654.63
2023-02-07T22:42:34.361Z,103652.78
2023-02-07T22:45:00.941Z,103655.44
2023-02-07T22:47:27.273Z,103660.00
2023-02-07T22:49:53.591Z,103652.84
2023-02-07T22:52:19.873Z,103657.69
2023-02-07T22:54:46.185Z,103657.16
2023-02-07T22:57:12.495Z,103659.72
2023-02-07T22:59:39.272Z,103661.53
2023-02-07T23:02:05.575Z,103658.66
2023-02-07T23:04:31.923Z,103655.84
2023-02-07T23:06:58.227Z,103654.78
2023-02-07T23:09:24.577Z,103654.44
2023-02-07T23:11:50.934Z,103659.44
2023-02-07T23:14:17.253Z,103654.63
2023-02-07T23:16:43.557Z,103647.84
2023-02-07T23:19:15.779Z,103649.84
2023-02-07T23:21:42.485Z,103652.00
2023-02-07T23:24:09.265Z,103644.88
2023-02-07T23:26:35.592Z,103646.28
2023-02-07T23:29:02.429Z,103650.22
2023-02-07T23:31:29.291Z,103646.66
2023-02-07T23:33:55.846Z,103652.38
2023-02-07T23:36:22.248Z,103648.09
2023-02-07T23:38:49.478Z,103645.94
2023-02-07T23:41:16.650Z,103646.78
2023-02-07T23:43:43.352Z,103646.94
2023-02-07T23:46:09.933Z,103642.47
2023-02-07T23:48:38.610Z,103653.78
2023-02-07T23:51:06.023Z,103656.66
2023-02-07T23:53:32.678Z,103653.44
2023-02-07T23:55:59.117Z,103660.09
2023-02-07T23:58:26.634Z,103649.56
